sensor_id;sensor_type;location;lat;lon;timestamp;pressure;altitude;pressure_sealevel;temperature;humidity
74334;BME280;62753;40.394;-80.022;2022-09-28T00:01:21;97384.72;;;14.66;36.65
74334;BME280;62753;40.394;-80.022;2022-09-28T00:03:45;97388.18;;;14.06;37.17
74334;BME280;62753;40.394;-80.022;2022-09-28T00:06:11;97392.28;;;14.91;37.03
74334;BME280;62753;40.394;-80.022;2022-09-28T00:08:35;97395.62;;;14.52;37.20
74334;BME280;62753;40.394;-80.022;2022-09-28T00:11:01;97399.39;;;14.43;37.71
74334;BME280;62753;40.394;-80.022;2022-09-28T00:13:26;97403.62;;;14.76;36.93
74334;BME280;62753;40.394;-80.022;2022-09-28T00:16:01;97406.98;;;14.62;36.35
74334;BME280;62753;40.394;-80.022;2022-09-28T00:18:16;97409.92;;;14.88;36.83
74334;BME280;62753;40.394;-80.022;2022-09-28T00:20:42;97414.33;;;14.94;36.41
74334;BME280;62753;40.394;-80.022;2022-09-28T00:23:07;97411.70;;;14.88;36.47
74334;BME280;62753;40.394;-80.022;2022-09-28T00:25:33;97410.97;;;14.41;37.11
74334;BME280;62753;40.394;-80.022;2022-09-28T00:27:58;97416.12;;;15.17;36.49
74334;BME280;62753;40.394;-80.022;2022-09-28T00:30:23;97418.50;;;14.19;36.70
74334;BME280;62753;40.394;-80.022;2022-09-28T00:32:48;97419.76;;;14.57;36.71
74334;BME280;62753;40.394;-80.022;2022-09-28T00:35:14;97422.42;;;14.63;37.09
74334;BME280;62753;40.394;-80.022;2022-09-28T00:37:39;97422.23;;;14.72;36.22
74334;BME280;62753;40.394;-80.022;2022-09-28T00:40:06;97421.39;;;14.67;36.25
74334;BME280;62753;40.394;-80.022;2022-09-28T00:42:30;97423.48;;;15.38;36.60
74334;BME280;62753;40.394;-80.022;2022-09-28T00:44:56;97420.47;;;15.03;36.01
74334;BME280;62753;40.394;-80.022;2022-09-28T00:49:50;97426.01;;;15.15;36.00
74334;BME280;62753;40.394;-80.022;2022-09-28T00:52:14;97432.27;;;15.71;35.20
74334;BME280;62753;40.394;-80.022;2022-09-28T00:54:37;97432.87;;;15.19;35.29
74334;BME280;62753;40.394;-80.022;2022-09-28T00:57:03;97438.03;;;15.32;35.81
74334;BME280;62753;40.394;-80.022;2022-09-28T00:59:29;97439.20;;;15.18;35.85
74334;BME280;62753;40.394;-80.022;2022-09-28T01:01:53;97443.88;;;14.92;36.49
74334;BME280;62753;40.394;-80.022;2022-09-28T01:04:18;97447.67;;;14.67;36.70
74334;BME280;62753;40.394;-80.022;2022-09-28T01:06:44;97447.30;;;14.76;36.27
74334;BME280;62753;40.394;-80.022;2022-09-28T01:09:09;97448.48;;;14.50;36.80
74334;BME280;62753;40.394;-80.022;2022-09-28T01:11:37;97449.73;;;14.33;38.48
74334;BME280;62753;40.394;-80.022;2022-09-28T01:14:00;97453.70;;;13.83;38.69
74334;BME280;62753;40.394;-80.022;2022-09-28T01:16:33;97455.17;;;13.89;38.51
74334;BME280;62753;40.394;-80.022;2022-09-28T01:18:58;97458.42;;;13.85;38.41
74334;BME280;62753;40.394;-80.022;2022-09-28T01:21:18;97463.94;;;14.71;37.94
74334;BME280;62753;40.394;-80.022;2022-09-28T01:23:53;97465.93;;;14.44;37.40
74334;BME280;62753;40.394;-80.022;2022-09-28T01:28:32;97472.92;;;14.50;37.31
74334;BME280;62753;40.394;-80.022;2022-09-28T01:31:02;97476.96;;;13.92;37.91
74334;BME280;62753;40.394;-80.022;2022-09-28T01:33:25;97475.68;;;14.03;38.47
74334;BME280;62753;40.394;-80.022;2022-09-28T01:35:52;97473.34;;;13.78;38.63
74334;BME280;62753;40.394;-80.022;2022-09-28T01:38:16;97475.19;;;14.38;38.45
74334;BME280;62753;40.394;-80.022;2022-09-28T01:40:40;97478.27;;;14.83;37.98
74334;BME280;62753;40.394;-80.022;2022-09-28T01:43:07;97478.64;;;14.03;37.56
74334;BME280;62753;40.394;-80.022;2022-09-28T01:45:35;97478.36;;;14.53;36.87
74334;BME280;62753;40.394;-80.022;2022-09-28T01:47:58;97477.00;;;14.50;37.53
74334;BME280;62753;40.394;-80.022;2022-09-28T01:50:22;97479.25;;;14.39;38.26
74334;BME280;62753;40.394;-80.022;2022-09-28T01:52:49;97484.92;;;14.34;37.71
74334;BME280;62753;40.394;-80.022;2022-09-28T01:55:13;97485.68;;;14.92;38.10
74334;BME280;62753;40.394;-80.022;2022-09-28T01:57:41;97490.24;;;14.10;38.79
74334;BME280;62753;40.394;-80.022;2022-09-28T02:00:05;97496.68;;;14.10;39.07
74334;BME280;62753;40.394;-80.022;2022-09-28T02:02:31;97499.16;;;13.63;39.71
74334;BME280;62753;40.394;-80.022;2022-09-28T02:04:56;97505.46;;;13.87;39.26
74334;BME280;62753;40.394;-80.022;2022-09-28T02:07:20;97505.91;;;14.02;39.01
74334;BME280;62753;40.394;-80.022;2022-09-28T02:09:46;97508.57;;;14.00;38.97
74334;BME280;62753;40.394;-80.022;2022-09-28T02:12:13;97515.97;;;14.43;39.10
74334;BME280;62753;40.394;-80.022;2022-09-28T02:14:37;97520.37;;;14.06;39.05
74334;BME280;62753;40.394;-80.022;2022-09-28T02:16:59;97522.51;;;14.74;38.73
74334;BME280;62753;40.394;-80.022;2022-09-28T02:19:27;97526.19;;;14.67;38.05
74334;BME280;62753;40.394;-80.022;2022-09-28T02:21:54;97523.85;;;14.59;38.64
74334;BME280;62753;40.394;-80.022;2022-09-28T02:24:19;97527.43;;;13.72;38.72
74334;BME280;62753;40.394;-80.022;2022-09-28T02:26:43;97531.47;;;14.33;38.80
74334;BME280;62753;40.394;-80.022;2022-09-28T02:29:07;97527.76;;;14.44;38.82
74334;BME280;62753;40.394;-80.022;2022-09-28T02:31:32;97528.00;;;14.71;38.53
74334;BME280;62753;40.394;-80.022;2022-09-28T02:33:58;97533.10;;;14.37;38.16
74334;BME280;62753;40.394;-80.022;2022-09-28T02:36:24;97536.61;;;14.55;37.97
74334;BME280;62753;40.394;-80.022;2022-09-28T02:38:48;97541.13;;;13.78;39.33
74334;BME280;62753;40.394;-80.022;2022-09-28T02:41:23;97539.70;;;13.76;39.19
74334;BME280;62753;40.394;-80.022;2022-09-28T02:43:49;97538.25;;;13.74;38.96
74334;BME280;62753;40.394;-80.022;2022-09-28T02:46:11;97543.51;;;14.63;38.65
74334;BME280;62753;40.394;-80.022;2022-09-28T02:48:41;97547.17;;;13.87;38.78
74334;BME280;62753;40.394;-80.022;2022-09-28T02:51:01;97543.34;;;14.36;38.43
74334;BME280;62753;40.394;-80.022;2022-09-28T02:53:34;97551.81;;;14.13;38.61
74334;BME280;62753;40.394;-80.022;2022-09-28T02:55:57;97551.96;;;14.26;38.80
74334;BME280;62753;40.394;-80.022;2022-09-28T02:58:19;97548.65;;;13.89;39.31
74334;BME280;62753;40.394;-80.022;2022-09-28T03:00:41;97544.74;;;13.83;38.85
74334;BME280;62753;40.394;-80.022;2022-09-28T03:03:07;97545.93;;;14.12;38.85
74334;BME280;62753;40.394;-80.022;2022-09-28T03:05:34;97545.63;;;14.57;38.36
74334;BME280;62753;40.394;-80.022;2022-09-28T03:07:57;97548.03;;;14.29;38.16
74334;BME280;62753;40.394;-80.022;2022-09-28T03:10:22;97549.14;;;14.97;37.88
74334;BME280;62753;40.394;-80.022;2022-09-28T03:12:45;97549.08;;;14.34;37.50
74334;BME280;62753;40.394;-80.022;2022-09-28T03:15:12;97550.55;;;14.45;37.06
74334;BME280;62753;40.394;-80.022;2022-09-28T03:17:34;97553.80;;;14.32;37.23
74334;BME280;62753;40.394;-80.022;2022-09-28T03:19:59;97559.00;;;14.67;37.01
74334;BME280;62753;40.394;-80.022;2022-09-28T03:22:24;97559.83;;;14.98;36.96
74334;BME280;62753;40.394;-80.022;2022-09-28T03:24:50;97563.12;;;14.79;37.17
74334;BME280;62753;40.394;-80.022;2022-09-28T03:27:15;97568.36;;;14.15;38.16
74334;BME280;62753;40.394;-80.022;2022-09-28T03:29:40;97568.73;;;14.18;38.55
74334;BME280;62753;40.394;-80.022;2022-09-28T03:32:06;97571.02;;;13.92;38.61
74334;BME280;62753;40.394;-80.022;2022-09-28T03:34:31;97573.68;;;13.70;38.05
74334;BME280;62753;40.394;-80.022;2022-09-28T03:36:57;97575.78;;;14.25;37.85
74334;BME280;62753;40.394;-80.022;2022-09-28T03:39:22;97575.31;;;14.11;38.28
74334;BME280;62753;40.394;-80.022;2022-09-28T03:41:47;97576.45;;;14.18;37.89
74334;BME280;62753;40.394;-80.022;2022-09-28T03:44:13;97582.68;;;14.18;37.92
74334;BME280;62753;40.394;-80.022;2022-09-28T03:46:38;97586.34;;;14.23;38.10
74334;BME280;62753;40.394;-80.022;2022-09-28T03:49:03;97591.03;;;13.66;38.50
74334;BME280;62753;40.394;-80.022;2022-09-28T03:51:29;97595.25;;;14.27;38.03
74334;BME280;62753;40.394;-80.022;2022-09-28T03:53:54;97590.78;;;14.10;38.20
74334;BME280;62753;40.394;-80.022;2022-09-28T03:56:20;97591.59;;;14.07;38.32
74334;BME280;62753;40.394;-80.022;2022-09-28T03:58:45;97588.87;;;14.16;38.62
74334;BME280;62753;40.394;-80.022;2022-09-28T04:01:12;97593.92;;;13.78;38.64
74334;BME280;62753;40.394;-80.022;2022-09-28T04:03:36;97595.50;;;14.03;38.90
74334;BME280;62753;40.394;-80.022;2022-09-28T04:06:01;97594.53;;;13.77;38.33
74334;BME280;62753;40.394;-80.022;2022-09-28T04:08:27;97594.15;;;14.55;38.05
74334;BME280;62753;40.394;-80.022;2022-09-28T04:10:55;97591.45;;;14.27;37.69
74334;BME280;62753;40.394;-80.022;2022-09-28T04:13:18;97590.70;;;14.06;38.05
74334;BME280;62753;40.394;-80.022;2022-09-28T04:15:50;97591.86;;;13.01;39.12
74334;BME280;62753;40.394;-80.022;2022-09-28T04:18:09;97592.37;;;13.55;38.80
74334;BME280;62753;40.394;-80.022;2022-09-28T04:20:34;97592.28;;;13.64;39.20
74334;BME280;62753;40.394;-80.022;2022-09-28T04:22:59;97595.92;;;13.70;38.52
74334;BME280;62753;40.394;-80.022;2022-09-28T04:25:25;97593.74;;;14.07;37.97
74334;BME280;62753;40.394;-80.022;2022-09-28T04:27:50;97594.05;;;14.36;37.77
74334;BME280;62753;40.394;-80.022;2022-09-28T04:30:15;97596.23;;;14.47;37.06
74334;BME280;62753;40.394;-80.022;2022-09-28T04:32:40;97594.98;;;13.98;37.05
74334;BME280;62753;40.394;-80.022;2022-09-28T04:35:07;97595.91;;;14.26;37.08
74334;BME280;62753;40.394;-80.022;2022-09-28T04:37:32;97594.54;;;14.21;37.17
74334;BME280;62753;40.394;-80.022;2022-09-28T04:39:57;97595.81;;;14.18;36.97
74334;BME280;62753;40.394;-80.022;2022-09-28T04:42:22;97590.78;;;14.28;37.13
74334;BME280;62753;40.394;-80.022;2022-09-28T04:44:47;97592.92;;;14.21;36.93
74334;BME280;62753;40.394;-80.022;2022-09-28T04:47:13;97591.57;;;14.55;36.95
74334;BME280;62753;40.394;-80.022;2022-09-28T04:49:39;97589.07;;;13.86;37.43
74334;BME280;62753;40.394;-80.022;2022-09-28T04:52:04;97583.34;;;13.85;37.47
74334;BME280;62753;40.394;-80.022;2022-09-28T04:54:29;97580.92;;;14.41;38.19
74334;BME280;62753;40.394;-80.022;2022-09-28T04:56:55;97583.52;;;13.49;37.91
74334;BME280;62753;40.394;-80.022;2022-09-28T04:59:20;97588.38;;;13.55;38.13
74334;BME280;62753;40.394;-80.022;2022-09-28T05:01:46;97587.47;;;13.71;38.25
74334;BME280;62753;40.394;-80.022;2022-09-28T05:04:11;97589.06;;;14.18;38.20
74334;BME280;62753;40.394;-80.022;2022-09-28T05:06:36;97586.54;;;13.41;37.98
74334;BME280;62753;40.394;-80.022;2022-09-28T05:09:01;97591.72;;;13.08;38.70
74334;BME280;62753;40.394;-80.022;2022-09-28T05:11:27;97590.43;;;13.23;38.53
74334;BME280;62753;40.394;-80.022;2022-09-28T05:13:53;97589.33;;;13.80;38.59
74334;BME280;62753;40.394;-80.022;2022-09-28T05:16:18;97588.81;;;13.40;38.65
74334;BME280;62753;40.394;-80.022;2022-09-28T05:18:43;97588.48;;;13.82;38.41
74334;BME280;62753;40.394;-80.022;2022-09-28T05:21:09;97591.60;;;13.29;38.73
74334;BME280;62753;40.394;-80.022;2022-09-28T05:23:35;97589.25;;;13.45;38.31
74334;BME280;62753;40.394;-80.022;2022-09-28T05:26:00;97588.54;;;13.30;38.06
74334;BME280;62753;40.394;-80.022;2022-09-28T05:28:27;97586.53;;;14.25;37.99
74334;BME280;62753;40.394;-80.022;2022-09-28T05:30:50;97596.12;;;13.32;38.00
74334;BME280;62753;40.394;-80.022;2022-09-28T05:33:16;97598.03;;;13.58;37.99
74334;BME280;62753;40.394;-80.022;2022-09-28T05:35:41;97600.05;;;13.34;38.67
74334;BME280;62753;40.394;-80.022;2022-09-28T05:38:06;97600.42;;;12.77;39.63
74334;BME280;62753;40.394;-80.022;2022-09-28T05:40:32;97598.66;;;13.50;39.17
74334;BME280;62753;40.394;-80.022;2022-09-28T05:42:59;97594.74;;;13.22;38.81
74334;BME280;62753;40.394;-80.022;2022-09-28T05:45:23;97592.72;;;13.57;38.61
74334;BME280;62753;40.394;-80.022;2022-09-28T05:47:48;97595.84;;;13.73;38.37
74334;BME280;62753;40.394;-80.022;2022-09-28T05:50:14;97601.35;;;13.56;38.32
74334;BME280;62753;40.394;-80.022;2022-09-28T05:52:39;97597.85;;;13.91;37.73
74334;BME280;62753;40.394;-80.022;2022-09-28T05:55:06;97604.48;;;13.21;38.45
74334;BME280;62753;40.394;-80.022;2022-09-28T05:57:30;97602.40;;;13.27;38.92
74334;BME280;62753;40.394;-80.022;2022-09-28T05:59:55;97603.91;;;13.01;38.79
74334;BME280;62753;40.394;-80.022;2022-09-28T06:02:21;97605.21;;;13.41;38.51
74334;BME280;62753;40.394;-80.022;2022-09-28T06:04:46;97606.82;;;13.82;38.16
74334;BME280;62753;40.394;-80.022;2022-09-28T06:07:11;97607.91;;;13.32;38.14
74334;BME280;62753;40.394;-80.022;2022-09-28T06:09:37;97611.66;;;13.80;38.11
74334;BME280;62753;40.394;-80.022;2022-09-28T06:12:02;97614.07;;;13.31;38.15
74334;BME280;62753;40.394;-80.022;2022-09-28T06:14:28;97616.61;;;13.53;38.27
74334;BME280;62753;40.394;-80.022;2022-09-28T06:16:53;97621.90;;;13.26;37.95
74334;BME280;62753;40.394;-80.022;2022-09-28T06:19:18;97624.61;;;13.41;38.33
74334;BME280;62753;40.394;-80.022;2022-09-28T06:21:44;97624.92;;;13.37;38.42
74334;BME280;62753;40.394;-80.022;2022-09-28T06:24:09;97622.50;;;12.98;38.64
74334;BME280;62753;40.394;-80.022;2022-09-28T06:26:35;97624.85;;;13.44;38.60
74334;BME280;62753;40.394;-80.022;2022-09-28T06:29:00;97630.25;;;13.58;38.14
74334;BME280;62753;40.394;-80.022;2022-09-28T06:31:26;97632.62;;;13.50;38.49
74334;BME280;62753;40.394;-80.022;2022-09-28T06:33:51;97635.98;;;13.44;39.14
74334;BME280;62753;40.394;-80.022;2022-09-28T06:36:17;97637.70;;;13.38;38.92
74334;BME280;62753;40.394;-80.022;2022-09-28T06:38:42;97637.81;;;13.66;38.52
74334;BME280;62753;40.394;-80.022;2022-09-28T06:41:07;97642.25;;;13.68;38.10
74334;BME280;62753;40.394;-80.022;2022-09-28T06:43:33;97642.57;;;13.23;38.94
74334;BME280;62753;40.394;-80.022;2022-09-28T06:45:58;97640.00;;;13.29;39.08
74334;BME280;62753;40.394;-80.022;2022-09-28T06:48:23;97639.92;;;13.32;39.06
74334;BME280;62753;40.394;-80.022;2022-09-28T06:50:49;97643.11;;;13.27;39.86
74334;BME280;62753;40.394;-80.022;2022-09-28T06:53:14;97643.30;;;12.71;39.37
74334;BME280;62753;40.394;-80.022;2022-09-28T06:55:41;97640.48;;;13.20;39.11
74334;BME280;62753;40.394;-80.022;2022-09-28T06:58:08;97636.17;;;13.36;39.19
74334;BME280;62753;40.394;-80.022;2022-09-28T07:00:33;97637.00;;;13.28;38.93
74334;BME280;62753;40.394;-80.022;2022-09-28T07:02:56;97636.11;;;13.12;38.31
74334;BME280;62753;40.394;-80.022;2022-09-28T07:05:21;97638.04;;;13.86;38.35
74334;BME280;62753;40.394;-80.022;2022-09-28T07:07:47;97642.65;;;12.89;38.87
74334;BME280;62753;40.394;-80.022;2022-09-28T07:10:12;97645.80;;;13.21;38.83
74334;BME280;62753;40.394;-80.022;2022-09-28T07:12:38;97644.28;;;13.36;38.47
74334;BME280;62753;40.394;-80.022;2022-09-28T07:15:04;97644.68;;;13.27;38.52
74334;BME280;62753;40.394;-80.022;2022-09-28T07:17:28;97646.04;;;13.58;38.07
74334;BME280;62753;40.394;-80.022;2022-09-28T07:19:54;97648.78;;;13.56;38.37
74334;BME280;62753;40.394;-80.022;2022-09-28T07:22:19;97646.04;;;13.27;39.17
74334;BME280;62753;40.394;-80.022;2022-09-28T07:24:45;97649.90;;;13.34;38.45
74334;BME280;62753;40.394;-80.022;2022-09-28T07:27:10;97650.67;;;13.41;38.36
74334;BME280;62753;40.394;-80.022;2022-09-28T07:29:36;97655.17;;;12.98;38.95
74334;BME280;62753;40.394;-80.022;2022-09-28T07:32:01;97657.55;;;13.26;38.83
74334;BME280;62753;40.394;-80.022;2022-09-28T07:34:27;97653.78;;;13.23;39.09
74334;BME280;62753;40.394;-80.022;2022-09-28T07:36:52;97655.27;;;12.98;38.91
74334;BME280;62753;40.394;-80.022;2022-09-28T07:39:18;97654.54;;;13.18;38.32
74334;BME280;62753;40.394;-80.022;2022-09-28T07:41:43;97655.87;;;13.22;38.92
74334;BME280;62753;40.394;-80.022;2022-09-28T07:44:09;97658.53;;;13.50;38.44
74334;BME280;62753;40.394;-80.022;2022-09-28T07:46:35;97659.59;;;13.20;38.28
74334;BME280;62753;40.394;-80.022;2022-09-28T07:49:00;97660.17;;;13.80;37.82
74334;BME280;62753;40.394;-80.022;2022-09-28T07:51:25;97660.45;;;13.17;37.81
74334;BME280;62753;40.394;-80.022;2022-09-28T07:53:50;97658.73;;;13.15;37.99
74334;BME280;62753;40.394;-80.022;2022-09-28T07:56:15;97657.59;;;12.92;39.01
74334;BME280;62753;40.394;-80.022;2022-09-28T07:58:41;97655.76;;;12.62;39.22
74334;BME280;62753;40.394;-80.022;2022-09-28T08:01:08;97657.43;;;13.47;39.02
74334;BME280;62753;40.394;-80.022;2022-09-28T08:03:33;97659.36;;;12.93;38.92
74334;BME280;62753;40.394;-80.022;2022-09-28T08:05:58;97665.97;;;12.84;40.09
74334;BME280;62753;40.394;-80.022;2022-09-28T08:08:23;97667.99;;;12.15;40.67
74334;BME280;62753;40.394;-80.022;2022-09-28T08:10:48;97665.17;;;12.85;39.52
74334;BME280;62753;40.394;-80.022;2022-09-28T08:13:13;97668.13;;;12.74;39.64
74334;BME280;62753;40.394;-80.022;2022-09-28T08:15:39;97666.83;;;12.12;40.08
74334;BME280;62753;40.394;-80.022;2022-09-28T08:18:05;97670.46;;;12.81;40.10
74334;BME280;62753;40.394;-80.022;2022-09-28T08:20:30;97665.73;;;12.62;40.34
74334;BME280;62753;40.394;-80.022;2022-09-28T08:22:55;97668.56;;;12.67;39.68
74334;BME280;62753;40.394;-80.022;2022-09-28T08:25:20;97671.86;;;13.02;39.51
74334;BME280;62753;40.394;-80.022;2022-09-28T08:27:46;97666.79;;;12.66;39.39
74334;BME280;62753;40.394;-80.022;2022-09-28T08:30:11;97667.34;;;12.10;40.10
74334;BME280;62753;40.394;-80.022;2022-09-28T08:32:37;97667.30;;;12.23;40.04
74334;BME280;62753;40.394;-80.022;2022-09-28T08:35:02;97669.62;;;12.62;40.10
74334;BME280;62753;40.394;-80.022;2022-09-28T08:37:27;97669.40;;;12.37;40.14
74334;BME280;62753;40.394;-80.022;2022-09-28T08:39:53;97671.64;;;12.20;40.76
74334;BME280;62753;40.394;-80.022;2022-09-28T08:42:29;97677.09;;;11.91;41.64
74334;BME280;62753;40.394;-80.022;2022-09-28T08:44:46;97676.77;;;12.67;40.94
74334;BME280;62753;40.394;-80.022;2022-09-28T08:47:13;97677.94;;;12.46;40.46
74334;BME280;62753;40.394;-80.022;2022-09-28T08:49:38;97680.37;;;11.92;42.82
74334;BME280;62753;40.394;-80.022;2022-09-28T08:52:03;97688.24;;;12.20;41.35
74334;BME280;62753;40.394;-80.022;2022-09-28T08:54:34;97689.96;;;12.36;41.47
74334;BME280;62753;40.394;-80.022;2022-09-28T08:56:53;97690.78;;;12.29;41.55
74334;BME280;62753;40.394;-80.022;2022-09-28T08:59:18;97691.94;;;12.03;42.07
74334;BME280;62753;40.394;-80.022;2022-09-28T09:01:47;97696.58;;;12.59;41.99
74334;BME280;62753;40.394;-80.022;2022-09-28T09:04:07;97698.33;;;11.99;41.66
74334;BME280;62753;40.394;-80.022;2022-09-28T09:06:44;97700.04;;;12.63;40.84
74334;BME280;62753;40.394;-80.022;2022-09-28T09:09:06;97703.52;;;11.73;42.16
74334;BME280;62753;40.394;-80.022;2022-09-28T09:11:38;97709.02;;;12.18;41.48
74334;BME280;62753;40.394;-80.022;2022-09-28T09:14:03;97714.11;;;12.40;40.95
74334;BME280;62753;40.394;-80.022;2022-09-28T09:16:27;97718.39;;;12.96;40.80
74334;BME280;62753;40.394;-80.022;2022-09-28T09:18:44;97717.26;;;12.73;40.50
74334;BME280;62753;40.394;-80.022;2022-09-28T09:21:10;97715.92;;;12.65;40.80
74334;BME280;62753;40.394;-80.022;2022-09-28T09:23:36;97715.36;;;12.84;39.78
74334;BME280;62753;40.394;-80.022;2022-09-28T09:26:00;97716.94;;;12.79;39.66
74334;BME280;62753;40.394;-80.022;2022-09-28T09:28:34;97718.77;;;13.05;39.29
74334;BME280;62753;40.394;-80.022;2022-09-28T09:30:54;97724.49;;;12.22;40.84
74334;BME280;62753;40.394;-80.022;2022-09-28T09:35:46;97729.73;;;12.54;40.37
74334;BME280;62753;40.394;-80.022;2022-09-28T09:38:12;97731.54;;;12.99;39.72
74334;BME280;62753;40.394;-80.022;2022-09-28T09:40:40;97727.52;;;12.53;40.21
74334;BME280;62753;40.394;-80.022;2022-09-28T09:43:04;97728.68;;;12.97;40.15
74334;BME280;62753;40.394;-80.022;2022-09-28T09:45:30;97732.13;;;12.52;40.02
74334;BME280;62753;40.394;-80.022;2022-09-28T09:47:49;97735.04;;;13.43;39.21
74334;BME280;62753;40.394;-80.022;2022-09-28T09:50:17;97735.36;;;13.59;38.77
74334;BME280;62753;40.394;-80.022;2022-09-28T09:52:44;97737.29;;;13.84;38.12
74334;BME280;62753;40.394;-80.022;2022-09-28T09:55:04;97743.11;;;13.88;37.59
74334;BME280;62753;40.394;-80.022;2022-09-28T09:57:31;97748.37;;;13.05;39.10
74334;BME280;62753;40.394;-80.022;2022-09-28T09:59:52;97753.77;;;13.09;39.79
74334;BME280;62753;40.394;-80.022;2022-09-28T10:02:22;97754.64;;;13.08;39.35
74334;BME280;62753;40.394;-80.022;2022-09-28T10:04:44;97753.28;;;13.39;40.27
74334;BME280;62753;40.394;-80.022;2022-09-28T10:07:13;97754.71;;;12.60;40.23
74334;BME280;62753;40.394;-80.022;2022-09-28T10:09:36;97760.27;;;12.82;40.53
74334;BME280;62753;40.394;-80.022;2022-09-28T10:11:59;97762.75;;;12.40;41.47
74334;BME280;62753;40.394;-80.022;2022-09-28T10:14:24;97764.24;;;13.03;40.58
74334;BME280;62753;40.394;-80.022;2022-09-28T10:16:52;97769.18;;;12.83;40.01
74334;BME280;62753;40.394;-80.022;2022-09-28T10:19:16;97774.31;;;13.16;39.61
74334;BME280;62753;40.394;-80.022;2022-09-28T10:21:41;97781.18;;;13.33;39.57
74334;BME280;62753;40.394;-80.022;2022-09-28T10:24:14;97783.40;;;13.59;39.21
74334;BME280;62753;40.394;-80.022;2022-09-28T10:26:34;97784.79;;;13.51;38.79
74334;BME280;62753;40.394;-80.022;2022-09-28T10:28:59;97790.70;;;12.59;40.78
74334;BME280;62753;40.394;-80.022;2022-09-28T10:31:34;97792.15;;;11.15;42.16
74334;BME280;62753;40.394;-80.022;2022-09-28T10:33:47;97790.11;;;12.45;41.61
74334;BME280;62753;40.394;-80.022;2022-09-28T10:36:12;97790.04;;;12.56;41.91
74334;BME280;62753;40.394;-80.022;2022-09-28T10:38:38;97792.92;;;12.58;41.56
74334;BME280;62753;40.394;-80.022;2022-09-28T10:41:10;97794.61;;;12.18;42.25
74334;BME280;62753;40.394;-80.022;2022-09-28T10:43:31;97796.88;;;12.51;41.25
74334;BME280;62753;40.394;-80.022;2022-09-28T10:46:02;97795.33;;;12.59;40.70
74334;BME280;62753;40.394;-80.022;2022-09-28T10:48:21;97794.61;;;13.22;41.41
74334;BME280;62753;40.394;-80.022;2022-09-28T10:50:57;97803.61;;;13.00;40.69
74334;BME280;62753;40.394;-80.022;2022-09-28T10:53:16;97806.27;;;12.93;40.17
74334;BME280;62753;40.394;-80.022;2022-09-28T10:55:36;97807.28;;;13.06;40.13
74334;BME280;62753;40.394;-80.022;2022-09-28T10:58:22;97809.23;;;13.26;40.86
74334;BME280;62753;40.394;-80.022;2022-09-28T11:00:34;97808.24;;;13.24;40.50
74334;BME280;62753;40.394;-80.022;2022-09-28T11:02:52;97805.99;;;13.38;39.82
74334;BME280;62753;40.394;-80.022;2022-09-28T11:05:20;97808.60;;;13.37;40.19
74334;BME280;62753;40.394;-80.022;2022-09-28T11:07:45;97807.09;;;13.41;39.52
74334;BME280;62753;40.394;-80.022;2022-09-28T11:10:17;97812.71;;;13.22;40.44
74334;BME280;62753;40.394;-80.022;2022-09-28T11:12:41;97811.65;;;13.25;39.86
74334;BME280;62753;40.394;-80.022;2022-09-28T11:15:00;97812.72;;;13.55;39.63
74334;BME280;62753;40.394;-80.022;2022-09-28T11:17:27;97810.35;;;14.12;38.88
74334;BME280;62753;40.394;-80.022;2022-09-28T11:19:50;97813.47;;;13.67;39.47
74334;BME280;62753;40.394;-80.022;2022-09-28T11:22:20;97816.01;;;13.72;39.61
74334;BME280;62753;40.394;-80.022;2022-09-28T11:24:41;97819.17;;;13.92;39.42
74334;BME280;62753;40.394;-80.022;2022-09-28T11:29:37;97820.92;;;14.21;38.66
74334;BME280;62753;40.394;-80.022;2022-09-28T11:31:59;97827.33;;;13.72;39.42
74334;BME280;62753;40.394;-80.022;2022-09-28T11:34:24;97829.74;;;14.03;39.66
74334;BME280;62753;40.394;-80.022;2022-09-28T11:36:57;97834.34;;;13.54;40.16
74334;BME280;62753;40.394;-80.022;2022-09-28T11:39:22;97840.42;;;13.71;40.19
74334;BME280;62753;40.394;-80.022;2022-09-28T11:41:49;97847.91;;;13.12;40.79
74334;BME280;62753;40.394;-80.022;2022-09-28T11:44:18;97850.41;;;13.44;40.08
74334;BME280;62753;40.394;-80.022;2022-09-28T11:46:36;97850.02;;;13.78;39.49
74334;BME280;62753;40.394;-80.022;2022-09-28T11:49:00;97854.27;;;13.52;40.53
74334;BME280;62753;40.394;-80.022;2022-09-28T11:51:23;97858.33;;;13.60;39.86
74334;BME280;62753;40.394;-80.022;2022-09-28T11:53:49;97862.09;;;14.04;39.01
74334;BME280;62753;40.394;-80.022;2022-09-28T11:56:16;97867.75;;;14.09;40.06
74334;BME280;62753;40.394;-80.022;2022-09-28T11:58:39;97876.16;;;13.40;41.04
74334;BME280;62753;40.394;-80.022;2022-09-28T12:01:04;97881.69;;;13.45;40.66
74334;BME280;62753;40.394;-80.022;2022-09-28T12:03:34;97882.50;;;13.53;40.28
74334;BME280;62753;40.394;-80.022;2022-09-28T12:05:57;97887.60;;;13.87;40.61
74334;BME280;62753;40.394;-80.022;2022-09-28T12:08:22;97890.12;;;13.71;40.55
74334;BME280;62753;40.394;-80.022;2022-09-28T12:10:46;97887.34;;;13.52;39.92
74334;BME280;62753;40.394;-80.022;2022-09-28T12:13:12;97896.53;;;14.34;39.36
74334;BME280;62753;40.394;-80.022;2022-09-28T12:15:42;97898.56;;;14.67;38.55
74334;BME280;62753;40.394;-80.022;2022-09-28T12:18:02;97898.24;;;14.38;38.75
74334;BME280;62753;40.394;-80.022;2022-09-28T12:20:27;97901.41;;;14.96;39.09
74334;BME280;62753;40.394;-80.022;2022-09-28T12:23:00;97896.17;;;14.42;38.85
74334;BME280;62753;40.394;-80.022;2022-09-28T12:25:17;97897.66;;;14.90;38.98
74334;BME280;62753;40.394;-80.022;2022-09-28T12:27:45;97900.17;;;13.79;40.19
74334;BME280;62753;40.394;-80.022;2022-09-28T12:30:13;97901.13;;;12.51;42.62
74334;BME280;62753;40.394;-80.022;2022-09-28T12:32:36;97902.42;;;12.90;41.97
74334;BME280;62753;40.394;-80.022;2022-09-28T12:34:57;97902.74;;;14.26;40.71
74334;BME280;62753;40.394;-80.022;2022-09-28T12:37:35;97907.70;;;14.23;40.48
74334;BME280;62753;40.394;-80.022;2022-09-28T12:39:56;97907.95;;;15.04;39.37